Time;durP1;ratioP1;P1;durP2;ratioP2;P2;SDS_P1;SDS_P2;PMS_P1;PMS_P2;Temp;Humidity;BMP_temperature;BMP_pressure;BME280_temperature;BME280_humidity;BME280_pressure;Samples;Min_cycle;Max_cycle;Signal;HPM_P1;HPM_P2
2022/12/19 00:00:34;;;;;;;28.87;17.23;;;2.00;99.90;;;;;;5073240;28;20215;-57
2022/12/19 00:03:02;;;;;;;28.03;16.57;;;2.00;99.90;;;;;;5073257;28;20664;-57
2022/12/19 00:05:29;;;;;;;27.03;16.63;;;2.20;99.90;;;;;;5072858;28;20225;-57
2022/12/19 00:07:56;;;;;;;32.80;18.07;;;2.30;99.90;;;;;;5072123;28;20223;-57
2022/12/19 00:10:22;;;;;;;26.97;15.57;;;2.30;99.90;;;;;;5072800;28;20317;-57
2022/12/19 00:12:49;;;;;;;29.37;17.03;;;2.30;99.90;;;;;;5073094;28;20233;-56
2022/12/19 00:15:16;;;;;;;26.30;15.73;;;2.30;99.90;;;;;;5072781;28;20205;-57
2022/12/19 00:17:43;;;;;;;26.50;14.97;;;2.20;99.90;;;;;;5072136;28;20208;-57
2022/12/19 00:20:11;;;;;;;26.03;15.40;;;2.10;99.90;;;;;;5072533;28;20215;-58
2022/12/19 00:22:38;;;;;;;25.03;15.73;;;2.10;99.90;;;;;;5072906;28;20212;-57
2022/12/19 00:25:06;;;;;;;26.53;15.43;;;2.20;99.90;;;;;;5072507;28;20205;-57
2022/12/19 00:27:34;;;;;;;26.67;15.53;;;2.20;99.90;;;;;;5072826;28;20213;-57
2022/12/19 00:30:01;;;;;;;26.33;15.67;;;2.20;99.90;;;;;;5072530;28;20216;-56
2022/12/19 00:32:27;;;;;;;27.47;16.17;;;2.10;99.90;;;;;;5072316;28;20229;-57
2022/12/19 00:34:54;;;;;;;24.83;14.83;;;2.20;99.90;;;;;;5072285;28;20205;-57
2022/12/19 00:37:22;;;;;;;25.03;14.87;;;2.20;99.90;;;;;;5072163;28;20229;-57
2022/12/19 00:39:49;;;;;;;23.93;14.40;;;2.20;99.90;;;;;;5071667;28;20205;-57
2022/12/19 00:42:16;;;;;;;25.13;15.40;;;2.20;99.90;;;;;;5072290;28;20223;-58
2022/12/19 00:44:43;;;;;;;25.67;15.17;;;2.20;99.90;;;;;;5072554;28;20205;-57
2022/12/19 00:47:09;;;;;;;25.03;14.87;;;2.10;99.90;;;;;;5071868;28;20744;-57
2022/12/19 00:49:36;;;;;;;23.27;14.00;;;2.00;99.90;;;;;;5070481;28;20208;-58
2022/12/19 00:52:03;;;;;;;26.50;14.97;;;1.90;99.90;;;;;;5072011;28;20220;-58
2022/12/19 00:54:31;;;;;;;20.47;13.07;;;1.80;99.90;;;;;;5072216;28;20223;-57
2022/12/19 00:56:58;;;;;;;20.73;13.50;;;1.60;99.90;;;;;;5071892;28;20220;-58
2022/12/19 00:59:24;;;;;;;24.53;13.87;;;1.20;99.90;;;;;;5071320;28;20235;-58
2022/12/19 01:01:51;;;;;;;23.80;14.00;;;1.00;99.90;;;;;;5071780;28;20204;-58
2022/12/19 01:04:18;;;;;;;24.63;13.43;;;0.80;99.90;;;;;;5071800;28;20205;-57
2022/12/19 01:06:44;;;;;;;24.43;14.10;;;0.60;99.90;;;;;;5071577;28;20225;-57
2022/12/19 01:09:12;;;;;;;27.03;15.13;;;0.30;99.90;;;;;;5071391;28;20223;-57
2022/12/19 01:14:30;;;;;;;25.33;14.63;;;0.20;99.90;;;;;;4996615;28;20226;-57
2022/12/19 01:16:56;;;;;;;24.03;13.57;;;0.30;99.90;;;;;;5071840;28;20236;-57
2022/12/19 01:19:23;;;;;;;24.03;13.43;;;0.50;99.90;;;;;;5071216;28;20536;-57
2022/12/19 01:21:50;;;;;;;29.43;14.67;;;0.70;99.90;;;;;;5071745;28;20219;-57
2022/12/19 01:24:16;;;;;;;26.73;14.53;;;0.80;99.90;;;;;;5071782;28;20554;-58
2022/12/19 01:26:45;;;;;;;26.37;13.90;;;0.90;99.90;;;;;;5087415;22;20231;-55
2022/12/19 01:29:12;;;;;;;28.23;14.67;;;0.70;99.90;;;;;;5064450;28;20193;-55
2022/12/19 01:31:39;;;;;;;29.67;14.27;;;0.60;99.90;;;;;;5073613;28;20201;-55
2022/12/19 01:34:06;;;;;;;25.33;14.63;;;0.60;99.90;;;;;;5074150;28;20205;-55
2022/12/19 01:36:34;;;;;;;26.07;14.57;;;0.70;99.90;;;;;;5073808;28;20287;-56
2022/12/19 01:39:01;;;;;;;25.57;13.93;;;0.70;99.90;;;;;;5073055;28;20209;-54
2022/12/19 01:41:28;;;;;;;26.93;13.93;;;0.80;99.90;;;;;;5073249;28;20213;-54
2022/12/19 01:43:59;;;;;;;26.33;14.53;;;1.00;99.90;;;;;;5073267;28;20201;-54
2022/12/19 01:46:31;;;;;;;28.37;14.50;;;1.00;99.90;;;;;;5073618;28;20704;-54
2022/12/19 01:48:59;;;;;;;26.40;14.53;;;0.90;99.90;;;;;;5073015;28;20205;-53
2022/12/19 01:51:33;;;;;;;26.90;14.37;;;0.90;99.90;;;;;;5073496;28;20232;-53
2022/12/19 01:54:04;;;;;;;25.50;14.03;;;0.90;99.90;;;;;;5072742;28;20307;-54
2022/12/19 01:56:34;;;;;;;24.67;14.23;;;0.90;99.90;;;;;;5073276;28;20247;-55
2022/12/19 01:59:06;;;;;;;26.97;14.70;;;0.90;99.90;;;;;;5072495;28;20209;-55
2022/12/19 02:01:33;;;;;;;29.03;15.23;;;0.90;99.90;;;;;;5076955;28;20227;-54
2022/12/19 02:04:02;;;;;;;24.00;13.83;;;1.00;99.90;;;;;;5077019;28;20201;-55
2022/12/19 02:06:30;;;;;;;25.27;14.83;;;1.00;99.90;;;;;;5077376;28;20518;-55
2022/12/19 02:08:57;;;;;;;26.90;15.43;;;1.00;99.90;;;;;;5076814;28;20200;-55
2022/12/19 02:11:24;;;;;;;26.83;14.70;;;1.00;99.90;;;;;;5078055;28;20205;-55
2022/12/19 02:13:51;;;;;;;23.20;13.27;;;1.00;99.90;;;;;;5077195;28;20273;-55
2022/12/19 02:16:33;;;;;;;26.10;14.03;;;1.00;99.90;;;;;;5077456;28;20225;-55
2022/12/19 02:19:18;;;;;;;25.37;13.60;;;1.00;99.90;;;;;;5075449;28;20205;-55
2022/12/19 02:21:52;;;;;;;28.27;15.17;;;1.00;99.90;;;;;;5076759;28;20219;-54
2022/12/19 02:24:46;;;;;;;28.93;15.37;;;1.00;99.90;;;;;;5076479;28;20208;-55
2022/12/19 02:27:44;;;;;;;25.80;14.90;;;0.90;99.90;;;;;;5076210;28;20232;-55
2022/12/19 02:30:13;;;;;;;27.07;14.10;;;0.90;99.90;;;;;;5075027;28;20562;-54
2022/12/19 02:32:48;;;;;;;28.87;15.03;;;0.90;99.90;;;;;;5076054;28;20221;-55
2022/12/19 02:35:23;;;;;;;26.43;14.70;;;1.00;99.90;;;;;;5076186;28;20200;-55
2022/12/19 02:37:55;;;;;;;29.00;15.47;;;1.00;99.90;;;;;;5075770;28;20211;-55
2022/12/19 02:40:27;;;;;;;30.93;15.13;;;1.00;99.90;;;;;;5076130;28;20220;-54
2022/12/19 02:42:58;;;;;;;24.27;14.20;;;1.00;99.90;;;;;;5075973;28;20205;-55
2022/12/19 02:45:30;;;;;;;29.13;15.40;;;1.00;99.90;;;;;;5075636;28;20227;-55
2022/12/19 02:47:59;;;;;;;28.23;14.87;;;1.00;99.90;;;;;;5074901;28;20213;-55
2022/12/19 02:50:26;;;;;;;27.17;15.27;;;1.00;99.90;;;;;;5075130;28;20211;-55
2022/12/19 02:52:53;;;;;;;27.70;14.90;;;1.10;99.90;;;;;;5075443;28;20278;-55
2022/12/19 02:55:23;;;;;;;28.03;15.97;;;1.20;99.90;;;;;;5075289;28;20240;-56
2022/12/19 02:58:09;;;;;;;27.17;15.20;;;1.20;99.90;;;;;;5074758;28;20192;-56
2022/12/19 03:00:45;;;;;;;27.00;14.20;;;1.30;99.90;;;;;;5075284;28;20215;-55
2022/12/19 03:03:21;;;;;;;29.40;14.87;;;1.20;99.90;;;;;;5075141;28;20276;-55
2022/12/19 03:05:57;;;;;;;24.90;13.80;;;1.20;99.90;;;;;;5075167;28;20328;-55
2022/12/19 03:08:28;;;;;;;27.53;14.03;;;1.20;99.90;;;;;;5074420;28;20204;-54
2022/12/19 03:10:59;;;;;;;30.63;16.17;;;1.10;99.90;;;;;;5074422;28;20244;-55
2022/12/19 03:13:30;;;;;;;26.67;14.77;;;1.10;99.90;;;;;;5075136;28;20225;-55
2022/12/19 03:15:58;;;;;;;28.63;15.13;;;1.10;99.90;;;;;;5074894;28;20229;-54
2022/12/19 03:18:27;;;;;;;25.80;14.53;;;1.20;99.90;;;;;;5074548;28;20228;-55
2022/12/19 03:21:02;;;;;;;30.47;15.70;;;1.30;99.90;;;;;;5074765;28;20209;-55
2022/12/19 03:23:29;;;;;;;28.27;15.10;;;1.40;99.90;;;;;;5075308;28;20671;-55
2022/12/19 03:26:00;;;;;;;28.97;15.50;;;1.30;99.90;;;;;;5074810;28;20315;-55
2022/12/19 03:28:31;;;;;;;26.63;14.63;;;1.40;99.90;;;;;;5074488;28;20243;-54
2022/12/19 03:30:59;;;;;;;28.00;15.47;;;1.50;99.90;;;;;;5075159;28;20204;-55
2022/12/19 03:33:31;;;;;;;27.77;15.23;;;1.60;99.90;;;;;;5075150;28;20231;-54
2022/12/19 03:36:04;;;;;;;30.20;16.00;;;1.80;99.90;;;;;;5074937;28;20241;-53
2022/12/19 03:38:32;;;;;;;30.07;16.10;;;1.80;99.90;;;;;;5074213;28;20209;-53
2022/12/19 03:41:00;;;;;;;28.10;15.27;;;1.90;99.90;;;;;;5074855;28;20208;-54
2022/12/19 03:43:30;;;;;;;27.07;15.27;;;1.90;99.90;;;;;;5074702;28;20580;-53
2022/12/19 03:46:01;;;;;;;27.23;14.83;;;2.00;99.90;;;;;;5074815;28;20225;-53
2022/12/19 03:48:33;;;;;;;27.07;14.93;;;2.00;99.90;;;;;;5073811;28;20217;-54
2022/12/19 03:51:08;;;;;;;26.40;15.30;;;2.00;99.90;;;;;;5074516;28;20212;-53
2022/12/19 03:53:46;;;;;;;26.93;14.00;;;1.90;99.90;;;;;;5074511;28;20224;-53
2022/12/19 03:56:17;;;;;;;26.67;14.97;;;1.80;99.90;;;;;;5074185;28;20228;-53
2022/12/19 03:58:51;;;;;;;28.37;14.87;;;1.70;99.90;;;;;;5073825;28;20197;-53
2022/12/19 04:01:20;;;;;;;23.67;13.87;;;1.70;99.90;;;;;;5074169;28;20216;-54
2022/12/19 04:03:49;;;;;;;26.97;15.07;;;1.80;99.90;;;;;;5074247;28;20201;-53
2022/12/19 04:06:17;;;;;;;30.77;15.80;;;1.80;99.90;;;;;;5074307;28;20225;-56
2022/12/19 04:08:44;;;;;;;27.80;15.07;;;1.90;99.90;;;;;;5073577;28;20209;-53
2022/12/19 04:11:16;;;;;;;27.37;15.40;;;2.00;99.90;;;;;;5073591;28;20207;-53
2022/12/19 04:13:49;;;;;;;26.97;15.23;;;2.20;99.90;;;;;;5073257;28;20244;-53
2022/12/19 04:16:23;;;;;;;26.83;15.80;;;2.40;99.90;;;;;;5073584;28;20225;-54
2022/12/19 04:18:56;;;;;;;27.40;14.97;;;2.50;99.90;;;;;;5072842;28;20209;-53
2022/12/19 04:21:28;;;;;;;26.70;14.50;;;2.70;99.90;;;;;;5073775;28;20296;-53
2022/12/19 04:24:00;;;;;;;25.50;13.97;;;2.60;99.90;;;;;;5073091;28;20208;-53
2022/12/19 04:26:28;;;;;;;26.93;14.27;;;2.50;99.90;;;;;;5072769;28;20229;-53
2022/12/19 04:28:58;;;;;;;26.00;13.90;;;2.30;99.90;;;;;;5073008;28;20636;-54
2022/12/19 04:31:25;;;;;;;24.87;14.43;;;2.10;99.90;;;;;;5073350;28;20580;-53
2022/12/19 04:33:53;;;;;;;24.70;14.97;;;2.00;99.90;;;;;;5073131;28;20228;-54
2022/12/19 04:36:20;;;;;;;25.83;15.17;;;2.00;99.90;;;;;;5073073;28;20225;-54
2022/12/19 04:38:47;;;;;;;26.10;13.97;;;1.90;99.90;;;;;;5072567;28;20208;-54
2022/12/19 04:41:14;;;;;;;28.97;15.40;;;1.90;99.90;;;;;;5073426;28;20207;-54
2022/12/19 04:43:41;;;;;;;26.13;14.90;;;1.90;99.90;;;;;;5073001;28;20231;-54
2022/12/19 04:46:07;;;;;;;26.27;14.23;;;2.00;99.90;;;;;;5073559;28;20292;-54
2022/12/19 04:48:35;;;;;;;24.70;13.73;;;2.00;99.90;;;;;;5073041;28;20569;-54
2022/12/19 04:51:04;;;;;;;24.60;14.93;;;2.10;99.90;;;;;;5073804;28;20228;-55
2022/12/19 04:53:32;;;;;;;24.37;13.63;;;2.10;99.90;;;;;;5073513;28;20307;-55
2022/12/19 04:56:02;;;;;;;22.97;14.20;;;2.00;99.90;;;;;;5073974;28;20614;-55
2022/12/19 04:58:29;;;;;;;24.23;13.57;;;2.00;99.90;;;;;;5073560;28;20248;-56
2022/12/19 05:01:01;;;;;;;24.70;14.37;;;2.00;99.90;;;;;;5074168;28;20565;-54
2022/12/19 05:03:28;;;;;;;23.87;14.10;;;2.10;99.90;;;;;;5073199;28;20189;-54
2022/12/19 05:06:05;;;;;;;25.70;14.63;;;2.10;99.90;;;;;;5072684;28;20225;-54
2022/12/19 05:08:32;;;;;;;24.57;13.73;;;2.10;99.90;;;;;;5073083;28;20208;-55
2022/12/19 05:11:00;;;;;;;25.40;13.50;;;2.20;99.90;;;;;;5074172;28;20261;-54
2022/12/19 05:13:27;;;;;;;26.37;14.33;;;2.20;99.90;;;;;;5074489;28;20597;-54
2022/12/19 05:15:58;;;;;;;25.93;15.57;;;2.10;99.90;;;;;;5076181;28;20304;-55
2022/12/19 05:18:26;;;;;;;25.03;13.50;;;2.10;99.90;;;;;;5076817;28;20626;-54
2022/12/19 05:20:53;;;;;;;22.93;13.23;;;2.10;99.90;;;;;;5077038;28;20201;-55
2022/12/19 05:23:23;;;;;;;26.73;14.57;;;2.00;99.90;;;;;;5076891;28;20197;-54
2022/12/19 05:25:50;;;;;;;25.63;15.63;;;2.00;99.90;;;;;;5076541;28;20782;-53
2022/12/19 05:28:17;;;;;;;24.47;14.40;;;2.30;99.90;;;;;;5076693;28;20227;-55
2022/12/19 05:30:45;;;;;;;25.47;14.37;;;2.30;99.90;;;;;;5077193;28;20739;-54
2022/12/19 05:33:12;;;;;;;28.03;15.30;;;2.40;99.90;;;;;;5077614;28;20534;-54
2022/12/19 05:35:39;;;;;;;24.23;13.27;;;2.40;99.90;;;;;;5074782;28;20219;-53
2022/12/19 05:38:06;;;;;;;25.07;13.77;;;2.30;99.90;;;;;;5077057;28;20269;-57
2022/12/19 05:40:34;;;;;;;25.73;14.43;;;2.30;99.90;;;;;;5074137;28;20283;-56
2022/12/19 05:43:01;;;;;;;23.90;14.37;;;2.20;99.90;;;;;;5075986;28;20208;-54
2022/12/19 05:45:28;;;;;;;23.63;13.33;;;2.10;99.90;;;;;;5074603;28;20212;-55
2022/12/19 05:47:55;;;;;;;27.53;14.40;;;2.10;99.90;;;;;;5075231;28;20205;-54
2022/12/19 05:50:22;;;;;;;27.07;14.33;;;2.10;99.90;;;;;;5073497;28;20219;-54
2022/12/19 05:52:49;;;;;;;24.07;13.97;;;2.10;99.90;;;;;;5073319;28;20204;-56
2022/12/19 05:55:16;;;;;;;24.13;14.40;;;2.10;99.90;;;;;;5073340;28;20229;-54
2022/12/19 05:57:45;;;;;;;22.07;13.10;;;2.20;99.90;;;;;;5073417;28;20320;-54
2022/12/19 06:00:13;;;;;;;20.93;13.67;;;2.20;99.90;;;;;;5073423;28;20209;-55
2022/12/19 06:02:40;;;;;;;22.47;13.30;;;2.20;99.90;;;;;;5073216;28;20215;-55
2022/12/19 06:05:08;;;;;;;24.33;14.07;;;2.20;99.90;;;;;;5073034;28;20250;-55
2022/12/19 06:07:35;;;;;;;25.67;13.60;;;2.10;99.90;;;;;;5073464;28;20264;-55
2022/12/19 06:10:02;;;;;;;26.03;14.17;;;2.10;99.90;;;;;;5072735;28;20618;-54
2022/12/19 06:12:29;;;;;;;26.00;13.47;;;2.10;99.90;;;;;;5073315;28;20577;-56
2022/12/19 06:14:57;;;;;;;21.90;13.03;;;2.10;99.90;;;;;;5073457;28;20598;-55
2022/12/19 06:17:24;;;;;;;25.00;13.87;;;2.00;99.90;;;;;;5072781;28;20227;-55
2022/12/19 06:19:51;;;;;;;23.80;13.50;;;2.10;99.90;;;;;;5072448;28;20645;-54
2022/12/19 06:22:18;;;;;;;25.13;13.73;;;2.10;99.90;;;;;;5073061;28;20212;-54
2022/12/19 06:24:45;;;;;;;24.50;13.67;;;2.10;99.90;;;;;;5072816;28;20197;-55
2022/12/19 06:27:11;;;;;;;24.07;14.07;;;2.10;99.90;;;;;;5073056;28;20233;-55
2022/12/19 06:29:38;;;;;;;22.33;13.47;;;2.10;99.90;;;;;;5073136;28;20205;-55
2022/12/19 06:32:07;;;;;;;25.40;13.67;;;2.20;99.90;;;;;;5074118;28;20205;-53
2022/12/19 06:34:34;;;;;;;25.53;13.93;;;2.20;99.90;;;;;;5073366;28;20229;-54
2022/12/19 06:37:01;;;;;;;24.93;13.17;;;2.30;99.90;;;;;;5073007;28;20286;-53
2022/12/19 06:39:27;;;;;;;22.50;13.30;;;2.40;99.90;;;;;;5071720;28;20205;-53
2022/12/19 06:44:38;;;;;;;21.37;12.67;;;2.50;99.90;;;;;;5071781;28;20275;-54
2022/12/19 06:47:07;;;;;;;26.00;14.40;;;2.60;99.90;;;;;;5073289;28;20262;-54
2022/12/19 06:49:33;;;;;;;23.30;13.33;;;2.60;99.90;;;;;;5074970;28;20215;-53
2022/12/19 06:52:01;;;;;;;25.30;12.93;;;2.60;99.90;;;;;;5075283;28;20688;-54
2022/12/19 06:54:27;;;;;;;24.37;13.63;;;2.70;99.90;;;;;;5075745;28;20233;-54
2022/12/19 06:56:54;;;;;;;23.40;12.70;;;2.70;99.90;;;;;;5075378;28;20225;-54
2022/12/19 06:59:21;;;;;;;23.83;13.87;;;2.70;99.90;;;;;;5075323;28;20299;-54
2022/12/19 07:01:56;;;;;;;24.17;13.40;;;2.70;99.90;;;;;;5075686;28;20568;-53
2022/12/19 07:04:29;;;;;;;24.10;13.77;;;2.80;99.90;;;;;;5075677;28;20205;-53
2022/12/19 07:06:56;;;;;;;21.77;13.17;;;2.80;99.90;;;;;;5075677;28;20225;-53
2022/12/19 07:09:23;;;;;;;23.37;13.33;;;3.00;99.90;;;;;;5075061;28;20612;-54
2022/12/19 07:11:50;;;;;;;21.63;12.10;;;3.00;99.90;;;;;;5075349;28;20613;-55
2022/12/19 07:14:17;;;;;;;22.30;13.17;;;3.10;99.90;;;;;;5074931;28;20304;-54
2022/12/19 07:16:45;;;;;;;22.30;12.90;;;3.10;99.90;;;;;;5075133;28;20762;-54
2022/12/19 07:19:12;;;;;;;24.17;13.23;;;3.10;99.90;;;;;;5074651;28;20248;-54
2022/12/19 07:21:41;;;;;;;23.93;13.43;;;3.10;99.90;;;;;;5075135;28;20581;-54
2022/12/19 07:24:09;;;;;;;23.80;14.17;;;3.10;99.90;;;;;;5074862;28;20197;-54
2022/12/19 07:26:36;;;;;;;21.60;12.83;;;3.20;99.90;;;;;;5075197;28;20243;-53
2022/12/19 07:29:03;;;;;;;23.57;13.13;;;3.30;99.90;;;;;;5074372;28;20205;-54
2022/12/19 07:31:30;;;;;;;23.03;13.73;;;3.50;99.90;;;;;;5074636;28;20212;-54
2022/12/19 07:33:57;;;;;;;20.47;12.30;;;3.70;99.90;;;;;;5073955;28;20241;-54
2022/12/19 07:36:24;;;;;;;25.70;13.40;;;3.80;99.90;;;;;;5074090;28;20642;-55
2022/12/19 07:38:52;;;;;;;27.60;13.90;;;3.90;99.90;;;;;;5073790;28;20213;-54
2022/12/19 07:41:19;;;;;;;23.40;12.43;;;4.00;99.90;;;;;;5074115;28;20479;-54
2022/12/19 07:43:46;;;;;;;22.73;13.50;;;4.20;99.90;;;;;;5074334;28;20216;-54
2022/12/19 07:46:13;;;;;;;23.50;14.00;;;4.30;99.90;;;;;;5074243;28;20225;-54
2022/12/19 07:48:40;;;;;;;25.60;13.20;;;4.40;99.90;;;;;;5073348;28;20696;-55
2022/12/19 07:51:06;;;;;;;27.30;13.73;;;4.50;99.90;;;;;;5073818;28;20215;-54
2022/12/19 07:53:33;;;;;;;22.27;13.23;;;4.60;99.90;;;;;;5073728;28;20205;-53
2022/12/19 07:56:01;;;;;;;21.00;13.63;;;4.70;99.90;;;;;;5073712;28;20229;-55
2022/12/19 07:58:28;;;;;;;23.00;13.57;;;4.90;99.90;;;;;;5073062;28;20205;-54
2022/12/19 08:00:56;;;;;;;22.93;13.53;;;5.00;99.90;;;;;;5074119;28;20216;-53
2022/12/19 08:03:23;;;;;;;23.27;13.97;;;5.10;99.90;;;;;;5073632;28;20242;-54
2022/12/19 08:05:50;;;;;;;22.47;13.27;;;5.10;99.90;;;;;;5073702;28;20217;-55
2022/12/19 08:08:17;;;;;;;23.30;13.17;;;5.20;99.90;;;;;;5073090;28;20213;-54
2022/12/19 08:10:44;;;;;;;21.67;12.53;;;5.20;99.90;;;;;;5072916;28;20235;-53
2022/12/19 08:13:12;;;;;;;20.20;12.20;;;5.30;99.90;;;;;;5073332;28;20209;-54
2022/12/19 08:15:38;;;;;;;18.63;11.77;;;5.30;99.90;;;;;;5073454;28;20233;-54
2022/12/19 08:18:05;;;;;;;20.03;11.80;;;5.40;99.90;;;;;;5073462;28;20204;-54
2022/12/19 08:20:32;;;;;;;18.93;12.47;;;5.50;99.90;;;;;;5072716;28;20220;-55
2022/12/19 08:22:59;;;;;;;18.50;11.57;;;5.70;99.90;;;;;;5073187;28;20205;-55
2022/12/19 08:25:26;;;;;;;18.87;12.23;;;5.90;99.90;;;;;;5072945;28;20205;-55
2022/12/19 08:27:52;;;;;;;26.17;15.23;;;6.00;99.90;;;;;;5072801;28;20220;-55
2022/12/19 08:30:20;;;;;;;26.17;15.20;;;6.20;99.90;;;;;;5072501;28;20684;-54
2022/12/19 08:32:47;;;;;;;20.00;13.27;;;6.30;99.90;;;;;;5073134;28;20208;-54
2022/12/19 08:35:14;;;;;;;27.67;15.50;;;6.40;99.90;;;;;;5072895;28;20335;-55
2022/12/19 08:37:41;;;;;;;29.77;16.03;;;6.60;99.90;;;;;;5072916;28;20735;-54
2022/12/19 08:40:09;;;;;;;20.37;13.57;;;6.70;99.90;;;;;;5072456;28;20205;-55
2022/12/19 08:42:35;;;;;;;23.63;14.43;;;6.70;99.90;;;;;;5072613;28;20691;-54
2022/12/19 08:45:02;;;;;;;28.97;15.93;;;6.70;99.90;;;;;;5072876;28;20205;-55
2022/12/19 08:47:30;;;;;;;27.57;16.60;;;6.90;99.90;;;;;;5072381;28;20229;-55
2022/12/19 08:49:57;;;;;;;24.03;14.37;;;7.20;99.90;;;;;;5072257;28;20207;-55
2022/12/19 08:52:24;;;;;;;24.13;15.23;;;7.00;99.90;;;;;;5072525;28;20201;-55
2022/12/19 08:54:51;;;;;;;24.03;14.77;;;7.00;99.90;;;;;;5072533;28;20221;-55
2022/12/19 08:57:18;;;;;;;29.23;15.73;;;7.10;99.90;;;;;;5072948;28;20221;-55
2022/12/19 08:59:44;;;;;;;27.60;15.97;;;7.40;99.90;;;;;;5072989;28;20240;-58
2022/12/19 09:02:11;;;;;;;25.13;16.23;;;7.50;99.90;;;;;;5073301;28;20209;-54
2022/12/19 09:04:40;;;;;;;26.57;16.70;;;7.70;99.90;;;;;;5074274;28;20212;-54
2022/12/19 09:07:06;;;;;;;24.37;15.00;;;7.90;99.90;;;;;;5073048;28;20231;-53
2022/12/19 09:09:33;;;;;;;19.00;12.20;;;8.10;99.90;;;;;;5072002;28;20213;-54
2022/12/19 09:12:00;;;;;;;18.00;11.27;;;8.20;99.90;;;;;;5073429;28;20200;-54
2022/12/19 09:14:27;;;;;;;16.97;11.23;;;8.10;99.90;;;;;;5073562;28;20603;-53
2022/12/19 09:16:54;;;;;;;18.07;11.63;;;7.90;99.90;;;;;;5073645;28;20252;-54
2022/12/19 09:19:21;;;;;;;17.70;11.33;;;7.70;99.90;;;;;;5073292;28;20259;-54
2022/12/19 09:21:49;;;;;;;18.10;11.30;;;7.70;99.90;;;;;;5073081;28;20708;-53
2022/12/19 09:24:16;;;;;;;16.13;10.03;;;7.60;99.90;;;;;;5072816;28;20205;-54
2022/12/19 09:26:44;;;;;;;15.43;10.07;;;7.30;99.90;;;;;;5072794;28;20765;-54
2022/12/19 09:29:11;;;;;;;16.07;11.07;;;7.30;99.90;;;;;;5072473;28;20208;-54
2022/12/19 09:31:38;;;;;;;17.87;11.50;;;7.40;99.90;;;;;;5072697;28;20308;-53
2022/12/19 09:34:05;;;;;;;14.97;10.50;;;7.60;99.90;;;;;;5071811;28;20284;-53
2022/12/19 09:36:32;;;;;;;16.20;10.73;;;7.70;99.90;;;;;;5072124;28;20224;-54
2022/12/19 09:39:00;;;;;;;17.70;10.50;;;7.80;99.90;;;;;;5071454;28;20213;-54
2022/12/19 09:41:59;;;;;;;18.43;11.07;;;7.90;99.90;;;;;;5073407;28;20209;-54
2022/12/19 09:44:41;;;;;;;17.03;10.50;;;7.80;99.90;;;;;;5068622;28;20211;-53
2022/12/19 09:47:14;;;;;;;18.40;11.50;;;7.90;99.90;;;;;;5072459;28;20430;-53
2022/12/19 09:49:43;;;;;;;16.57;10.60;;;7.80;99.90;;;;;;5072168;28;20204;-55
2022/12/19 09:52:15;;;;;;;17.37;10.37;;;7.50;99.90;;;;;;5072561;28;20285;-53
2022/12/19 09:54:48;;;;;;;16.17;10.37;;;7.30;99.90;;;;;;5072383;28;20225;-54
2022/12/19 09:57:19;;;;;;;16.43;10.63;;;7.30;99.90;;;;;;5072745;28;20229;-53
2022/12/19 09:59:49;;;;;;;16.60;9.80;;;7.40;99.90;;;;;;5072118;28;20196;-53
2022/12/19 10:02:34;;;;;;;18.20;10.93;;;7.50;99.90;;;;;;5072100;28;20219;-53
2022/12/19 10:05:06;;;;;;;16.47;10.37;;;7.50;99.90;;;;;;5072527;28;20205;-53
2022/12/19 10:07:33;;;;;;;17.47;10.17;;;7.60;99.90;;;;;;5072488;28;20228;-53
2022/12/19 10:10:02;;;;;;;15.53;10.07;;;7.40;99.90;;;;;;5071327;28;20209;-52
2022/12/19 10:12:43;;;;;;;16.20;9.83;;;7.50;99.90;;;;;;5072627;28;20205;-54
2022/12/19 10:15:18;;;;;;;15.60;9.87;;;7.80;99.90;;;;;;5072415;28;20636;-53
2022/12/19 10:18:04;;;;;;;15.70;10.03;;;8.00;99.90;;;;;;5072322;28;20247;-54
2022/12/19 10:20:35;;;;;;;13.63;8.93;;;8.20;99.90;;;;;;5072259;28;20201;-54
2022/12/19 10:23:16;;;;;;;14.77;9.37;;;8.50;99.90;;;;;;5075894;28;20204;-54
2022/12/19 10:25:57;;;;;;;16.87;10.67;;;8.70;99.90;;;;;;5075978;28;20225;-54
2022/12/19 10:28:47;;;;;;;15.27;9.93;;;8.90;99.90;;;;;;5075986;28;20223;-54
2022/12/19 10:31:20;;;;;;;15.63;9.73;;;9.00;99.90;;;;;;5075546;28;20664;-54
2022/12/19 10:33:53;;;;;;;17.33;10.53;;;9.00;99.90;;;;;;5075765;28;20225;-54
2022/12/19 10:36:22;;;;;;;15.80;10.20;;;9.10;99.90;;;;;;5075340;28;20233;-55
2022/12/19 10:38:56;;;;;;;18.00;10.63;;;9.10;99.90;;;;;;5074875;28;20209;-54
2022/12/19 10:41:28;;;;;;;17.83;12.17;;;9.00;99.90;;;;;;5075505;28;20208;-54
2022/12/19 10:44:01;;;;;;;17.57;11.47;;;9.00;99.90;;;;;;5075635;28;20209;-54
2022/12/19 10:46:39;;;;;;;14.97;10.00;;;9.20;99.90;;;;;;5075692;28;20217;-54
2022/12/19 10:49:15;;;;;;;16.63;10.93;;;9.40;99.90;;;;;;5074882;28;20205;-55
2022/12/19 10:51:52;;;;;;;15.80;10.37;;;9.50;99.90;;;;;;5075081;28;20197;-55
2022/12/19 10:54:18;;;;;;;13.57;9.80;;;9.60;99.90;;;;;;5075192;28;20205;-54
2022/12/19 10:56:47;;;;;;;18.40;11.23;;;9.60;99.90;;;;;;5075344;28;20229;-54
2022/12/19 10:59:16;;;;;;;18.97;10.97;;;9.60;99.90;;;;;;5074542;28;20602;-53
2022/12/19 11:01:44;;;;;;;16.40;11.07;;;9.50;99.90;;;;;;5075140;28;20209;-53
2022/12/19 11:04:18;;;;;;;17.37;10.60;;;9.30;99.90;;;;;;5074770;28;20266;-55
2022/12/19 11:06:48;;;;;;;15.57;10.17;;;9.10;99.90;;;;;;5073917;28;20256;-54
2022/12/19 11:09:28;;;;;;;12.67;9.10;;;9.10;99.90;;;;;;5074112;28;20201;-54
2022/12/19 11:12:07;;;;;;;15.83;9.60;;;9.00;99.90;;;;;;5075471;28;20262;-55
2022/12/19 11:14:36;;;;;;;15.10;10.07;;;8.80;99.90;;;;;;5075206;28;20292;-53
2022/12/19 11:17:05;;;;;;;16.23;10.37;;;8.60;99.90;;;;;;5074728;28;20312;-54
2022/12/19 11:19:34;;;;;;;16.83;10.07;;;8.50;99.90;;;;;;5074014;28;20216;-53
2022/12/19 11:22:05;;;;;;;17.37;10.47;;;8.50;99.90;;;;;;5074968;28;20212;-54
2022/12/19 11:24:36;;;;;;;18.83;11.33;;;8.30;99.90;;;;;;5074367;28;20295;-53
2022/12/19 11:27:28;;;;;;;15.07;10.20;;;8.20;99.90;;;;;;5074338;28;20233;-55
2022/12/19 11:29:57;;;;;;;16.70;10.80;;;8.20;99.90;;;;;;5074257;28;20228;-53
2022/12/19 11:32:31;;;;;;;15.83;10.13;;;8.20;99.90;;;;;;5073644;28;20212;-55
2022/12/19 11:35:01;;;;;;;18.07;10.47;;;8.40;99.90;;;;;;5074821;28;20206;-57
2022/12/19 11:37:37;;;;;;;17.97;10.73;;;8.50;99.90;;;;;;5070005;28;20221;-59
2022/12/19 11:40:10;;;;;;;14.23;9.90;;;8.50;99.90;;;;;;5072975;28;20662;-54
2022/12/19 11:42:49;;;;;;;16.07;9.87;;;8.60;99.90;;;;;;5073313;28;20235;-54
2022/12/19 11:45:21;;;;;;;15.90;10.53;;;8.50;99.90;;;;;;5073176;28;20258;-61
2022/12/19 11:47:55;;;;;;;15.70;10.03;;;8.30;99.90;;;;;;5072578;28;20200;-58
2022/12/19 11:50:26;;;;;;;16.83;10.50;;;8.00;99.90;;;;;;5072822;28;20204;-58
2022/12/19 11:53:02;;;;;;;16.17;10.73;;;7.90;99.90;;;;;;5073184;28;20581;-57
2022/12/19 11:55:42;;;;;;;19.03;11.27;;;7.80;99.90;;;;;;5072422;28;20224;-56
2022/12/19 11:58:11;;;;;;;17.57;11.07;;;7.80;99.90;;;;;;5072408;28;20205;-56
2022/12/19 12:00:45;;;;;;;19.10;11.97;;;7.80;99.90;;;;;;5072405;28;20274;-57
2022/12/19 12:03:52;;;;;;;20.27;11.70;;;7.90;99.90;;;;;;5072744;28;20212;-59
2022/12/19 12:06:19;;;;;;;18.00;11.37;;;8.20;99.90;;;;;;5071897;28;20228;-58
2022/12/19 12:08:58;;;;;;;15.60;10.07;;;8.20;99.90;;;;;;5070557;28;20227;-57
2022/12/19 12:11:31;;;;;;;17.80;10.90;;;8.30;99.90;;;;;;5069689;28;20196;-53
2022/12/19 12:14:19;;;;;;;16.30;10.73;;;8.30;99.90;;;;;;5073961;28;20577;-57
2022/12/19 12:17:22;;;;;;;17.30;11.17;;;8.40;99.90;;;;;;5073625;28;20281;-57
2022/12/19 12:20:02;;;;;;;16.70;11.03;;;8.30;99.90;;;;;;5070620;28;20640;-58
2022/12/19 12:22:50;;;;;;;18.10;11.37;;;8.30;99.90;;;;;;5072946;28;20391;-59
2022/12/19 12:25:29;;;;;;;18.17;11.50;;;8.40;99.90;;;;;;5072654;28;20205;-58
2022/12/19 12:28:15;;;;;;;17.20;10.77;;;8.40;99.90;;;;;;5072429;28;20619;-56
2022/12/19 12:30:53;;;;;;;15.97;10.40;;;8.40;99.90;;;;;;5071772;28;20205;-56
2022/12/19 12:33:29;;;;;;;18.77;11.17;;;8.40;99.90;;;;;;5073435;28;20200;-57
2022/12/19 12:36:01;;;;;;;20.87;11.83;;;8.30;99.90;;;;;;5071959;28;20598;-56
2022/12/19 12:38:56;;;;;;;19.37;11.90;;;8.30;99.90;;;;;;5070936;28;20679;-56
2022/12/19 12:44:12;;;;;;;19.37;11.30;;;8.30;99.90;;;;;;5072069;28;20288;-58
2022/12/19 12:46:45;;;;;;;17.80;11.27;;;8.50;99.90;;;;;;5071365;28;20578;-56
2022/12/19 12:49:27;;;;;;;19.50;11.50;;;8.60;99.90;;;;;;5071797;28;20665;-56
2022/12/19 12:51:54;;;;;;;19.97;11.07;;;8.70;99.90;;;;;;5072448;28;20381;-54
2022/12/19 12:54:26;;;;;;;15.57;10.23;;;8.80;99.90;;;;;;5072648;28;20216;-55
2022/12/19 12:56:54;;;;;;;15.17;9.97;;;8.80;99.90;;;;;;5071608;28;20229;-59
2022/12/19 12:59:23;;;;;;;15.47;10.40;;;8.90;99.90;;;;;;5071939;28;20204;-55
2022/12/19 13:01:55;;;;;;;15.97;11.10;;;9.10;99.90;;;;;;5072660;28;20211;-57